sensor_id;sensor_type;location;lat;lon;timestamp;P1;durP1;ratioP1;P2;durP2;ratioP2
2177;SDS011;1095;50.992;6.798;2023-11-22T00:01:17;26.48;;;17.35;;
2177;SDS011;1095;50.992;6.798;2023-11-22T00:06:14;24.17;;;16.70;;
2177;SDS011;1095;50.992;6.798;2023-11-22T00:08:47;27.55;;;16.73;;
2177;SDS011;1095;50.992;6.798;2023-11-22T00:11:15;25.65;;;15.43;;
2177;SDS011;1095;50.992;6.798;2023-11-22T00:13:41;25.45;;;15.88;;
2177;SDS011;1095;50.992;6.798;2023-11-22T00:16:08;27.00;;;16.40;;
2177;SDS011;1095;50.992;6.798;2023-11-22T00:18:35;27.58;;;16.20;;
2177;SDS011;1095;50.992;6.798;2023-11-22T00:21:03;26.15;;;16.95;;
2177;SDS011;1095;50.992;6.798;2023-11-22T00:23:30;23.45;;;15.98;;
2177;SDS011;1095;50.992;6.798;2023-11-22T00:25:57;25.88;;;16.45;;
2177;SDS011;1095;50.992;6.798;2023-11-22T00:28:25;26.50;;;16.80;;
2177;SDS011;1095;50.992;6.798;2023-11-22T00:30:52;24.83;;;16.55;;
2177;SDS011;1095;50.992;6.798;2023-11-22T00:33:19;24.55;;;16.23;;
2177;SDS011;1095;50.992;6.798;2023-11-22T00:35:46;25.15;;;17.23;;
2177;SDS011;1095;50.992;6.798;2023-11-22T00:38:13;27.73;;;17.10;;
2177;SDS011;1095;50.992;6.798;2023-11-22T00:40:39;26.63;;;17.10;;
2177;SDS011;1095;50.992;6.798;2023-11-22T00:43:06;23.65;;;16.13;;
2177;SDS011;1095;50.992;6.798;2023-11-22T00:45:34;24.77;;;16.30;;
2177;SDS011;1095;50.992;6.798;2023-11-22T00:48:01;26.55;;;16.58;;
2177;SDS011;1095;50.992;6.798;2023-11-22T00:50:28;23.02;;;16.25;;
2177;SDS011;1095;50.992;6.798;2023-11-22T00:52:55;24.88;;;16.55;;
2177;SDS011;1095;50.992;6.798;2023-11-22T00:55:21;26.48;;;16.55;;
2177;SDS011;1095;50.992;6.798;2023-11-22T00:57:48;26.90;;;16.85;;
2177;SDS011;1095;50.992;6.798;2023-11-22T01:00:15;26.92;;;17.05;;
2177;SDS011;1095;50.992;6.798;2023-11-22T01:02:43;29.10;;;18.00;;
2177;SDS011;1095;50.992;6.798;2023-11-22T01:05:10;28.33;;;17.92;;
2177;SDS011;1095;50.992;6.798;2023-11-22T01:07:37;28.23;;;18.27;;
2177;SDS011;1095;50.992;6.798;2023-11-22T01:10:05;29.75;;;17.98;;
2177;SDS011;1095;50.992;6.798;2023-11-22T01:12:32;32.10;;;17.85;;
2177;SDS011;1095;50.992;6.798;2023-11-22T01:14:59;28.75;;;17.30;;
2177;SDS011;1095;50.992;6.798;2023-11-22T01:17:26;27.92;;;17.20;;
2177;SDS011;1095;50.992;6.798;2023-11-22T01:19:53;28.42;;;17.98;;
2177;SDS011;1095;50.992;6.798;2023-11-22T01:22:20;24.63;;;16.58;;
2177;SDS011;1095;50.992;6.798;2023-11-22T01:24:47;27.13;;;17.70;;
2177;SDS011;1095;50.992;6.798;2023-11-22T01:27:13;27.02;;;17.25;;
2177;SDS011;1095;50.992;6.798;2023-11-22T01:29:40;27.45;;;17.00;;
2177;SDS011;1095;50.992;6.798;2023-11-22T01:32:07;27.02;;;17.45;;
2177;SDS011;1095;50.992;6.798;2023-11-22T01:34:34;26.30;;;16.33;;
2177;SDS011;1095;50.992;6.798;2023-11-22T01:37:02;27.52;;;17.48;;
2177;SDS011;1095;50.992;6.798;2023-11-22T01:39:29;29.52;;;17.42;;
2177;SDS011;1095;50.992;6.798;2023-11-22T01:41:57;26.90;;;17.42;;
2177;SDS011;1095;50.992;6.798;2023-11-22T01:44:23;27.63;;;17.33;;
2177;SDS011;1095;50.992;6.798;2023-11-22T01:46:51;25.42;;;16.42;;
2177;SDS011;1095;50.992;6.798;2023-11-22T01:49:19;25.45;;;16.27;;
2177;SDS011;1095;50.992;6.798;2023-11-22T01:51:45;24.75;;;15.95;;
2177;SDS011;1095;50.992;6.798;2023-11-22T01:54:13;25.17;;;16.40;;
2177;SDS011;1095;50.992;6.798;2023-11-22T01:56:48;22.50;;;15.82;;
2177;SDS011;1095;50.992;6.798;2023-11-22T01:59:15;25.17;;;15.70;;
2177;SDS011;1095;50.992;6.798;2023-11-22T02:01:42;21.80;;;15.25;;
2177;SDS011;1095;50.992;6.798;2023-11-22T02:04:09;23.42;;;15.05;;
2177;SDS011;1095;50.992;6.798;2023-11-22T02:06:39;22.73;;;15.15;;
2177;SDS011;1095;50.992;6.798;2023-11-22T02:09:08;23.17;;;15.38;;
2177;SDS011;1095;50.992;6.798;2023-11-22T02:11:40;23.75;;;14.95;;
2177;SDS011;1095;50.992;6.798;2023-11-22T02:14:07;24.00;;;15.05;;
2177;SDS011;1095;50.992;6.798;2023-11-22T02:16:34;23.08;;;15.45;;
2177;SDS011;1095;50.992;6.798;2023-11-22T02:19:01;20.48;;;14.18;;
2177;SDS011;1095;50.992;6.798;2023-11-22T02:21:27;22.15;;;13.88;;
2177;SDS011;1095;50.992;6.798;2023-11-22T02:23:55;22.42;;;14.43;;
2177;SDS011;1095;50.992;6.798;2023-11-22T02:26:22;22.15;;;13.98;;
2177;SDS011;1095;50.992;6.798;2023-11-22T02:28:50;23.88;;;14.50;;
2177;SDS011;1095;50.992;6.798;2023-11-22T02:31:17;22.70;;;14.02;;
2177;SDS011;1095;50.992;6.798;2023-11-22T02:33:44;23.27;;;14.13;;
2177;SDS011;1095;50.992;6.798;2023-11-22T02:36:10;20.90;;;13.60;;
2177;SDS011;1095;50.992;6.798;2023-11-22T02:38:38;21.48;;;13.77;;
2177;SDS011;1095;50.992;6.798;2023-11-22T02:41:07;23.33;;;13.60;;
2177;SDS011;1095;50.992;6.798;2023-11-22T02:43:34;19.38;;;13.63;;
2177;SDS011;1095;50.992;6.798;2023-11-22T02:46:00;22.30;;;13.77;;
2177;SDS011;1095;50.992;6.798;2023-11-22T02:48:28;21.92;;;14.75;;
2177;SDS011;1095;50.992;6.798;2023-11-22T02:50:54;25.90;;;14.48;;
2177;SDS011;1095;50.992;6.798;2023-11-22T02:53:21;19.55;;;13.43;;
2177;SDS011;1095;50.992;6.798;2023-11-22T02:55:47;24.38;;;14.65;;
2177;SDS011;1095;50.992;6.798;2023-11-22T02:58:15;21.35;;;13.70;;
2177;SDS011;1095;50.992;6.798;2023-11-22T03:00:42;21.98;;;15.23;;
2177;SDS011;1095;50.992;6.798;2023-11-22T03:03:09;22.20;;;14.65;;
2177;SDS011;1095;50.992;6.798;2023-11-22T03:05:36;27.13;;;15.27;;
2177;SDS011;1095;50.992;6.798;2023-11-22T03:08:03;22.90;;;14.32;;
2177;SDS011;1095;50.992;6.798;2023-11-22T03:10:32;25.02;;;14.27;;
2177;SDS011;1095;50.992;6.798;2023-11-22T03:12:58;25.45;;;15.30;;
2177;SDS011;1095;50.992;6.798;2023-11-22T03:15:26;23.00;;;14.75;;
2177;SDS011;1095;50.992;6.798;2023-11-22T03:17:53;21.98;;;14.13;;
2177;SDS011;1095;50.992;6.798;2023-11-22T03:20:19;26.48;;;15.98;;
2177;SDS011;1095;50.992;6.798;2023-11-22T03:22:46;24.27;;;14.77;;
2177;SDS011;1095;50.992;6.798;2023-11-22T03:25:15;29.02;;;15.60;;
2177;SDS011;1095;50.992;6.798;2023-11-22T03:27:43;23.23;;;15.07;;
2177;SDS011;1095;50.992;6.798;2023-11-22T03:30:11;23.90;;;15.45;;
2177;SDS011;1095;50.992;6.798;2023-11-22T03:32:40;26.15;;;16.10;;
2177;SDS011;1095;50.992;6.798;2023-11-22T03:35:07;24.70;;;15.43;;
2177;SDS011;1095;50.992;6.798;2023-11-22T03:37:34;26.73;;;15.30;;
2177;SDS011;1095;50.992;6.798;2023-11-22T03:40:01;29.67;;;16.48;;
2177;SDS011;1095;50.992;6.798;2023-11-22T03:42:28;30.90;;;16.95;;
2177;SDS011;1095;50.992;6.798;2023-11-22T03:44:54;25.55;;;16.58;;
2177;SDS011;1095;50.992;6.798;2023-11-22T03:47:24;30.35;;;17.25;;
2177;SDS011;1095;50.992;6.798;2023-11-22T03:49:52;29.05;;;17.27;;
2177;SDS011;1095;50.992;6.798;2023-11-22T03:52:18;27.02;;;16.52;;
2177;SDS011;1095;50.992;6.798;2023-11-22T03:54:45;30.20;;;17.58;;
2177;SDS011;1095;50.992;6.798;2023-11-22T03:57:12;31.27;;;18.20;;
2177;SDS011;1095;50.992;6.798;2023-11-22T03:59:40;32.17;;;16.95;;
2177;SDS011;1095;50.992;6.798;2023-11-22T04:02:07;27.45;;;16.95;;
2177;SDS011;1095;50.992;6.798;2023-11-22T04:04:33;28.80;;;17.08;;
2177;SDS011;1095;50.992;6.798;2023-11-22T04:07:01;32.25;;;17.92;;
2177;SDS011;1095;50.992;6.798;2023-11-22T04:09:28;26.15;;;16.65;;
2177;SDS011;1095;50.992;6.798;2023-11-22T04:11:55;30.75;;;17.75;;
2177;SDS011;1095;50.992;6.798;2023-11-22T04:14:21;28.30;;;16.48;;
2177;SDS011;1095;50.992;6.798;2023-11-22T04:16:48;32.72;;;16.70;;
2177;SDS011;1095;50.992;6.798;2023-11-22T04:19:15;26.60;;;16.83;;
2177;SDS011;1095;50.992;6.798;2023-11-22T04:21:41;29.85;;;17.38;;
2177;SDS011;1095;50.992;6.798;2023-11-22T04:24:09;35.22;;;17.63;;
2177;SDS011;1095;50.992;6.798;2023-11-22T04:26:37;29.38;;;17.13;;
2177;SDS011;1095;50.992;6.798;2023-11-22T04:29:04;29.92;;;18.00;;
2177;SDS011;1095;50.992;6.798;2023-11-22T04:31:31;29.52;;;18.67;;
2177;SDS011;1095;50.992;6.798;2023-11-22T04:33:57;32.90;;;20.00;;
2177;SDS011;1095;50.992;6.798;2023-11-22T04:36:25;31.50;;;18.67;;
2177;SDS011;1095;50.992;6.798;2023-11-22T04:38:51;35.08;;;19.70;;
2177;SDS011;1095;50.992;6.798;2023-11-22T04:41:19;35.20;;;19.52;;
2177;SDS011;1095;50.992;6.798;2023-11-22T04:43:47;32.42;;;18.67;;
2177;SDS011;1095;50.992;6.798;2023-11-22T04:46:14;34.15;;;18.55;;
2177;SDS011;1095;50.992;6.798;2023-11-22T04:48:41;39.65;;;21.58;;
2177;SDS011;1095;50.992;6.798;2023-11-22T04:51:10;39.65;;;20.70;;
2177;SDS011;1095;50.992;6.798;2023-11-22T04:53:36;37.50;;;20.13;;
2177;SDS011;1095;50.992;6.798;2023-11-22T04:56:03;38.55;;;20.48;;
2177;SDS011;1095;50.992;6.798;2023-11-22T04:58:32;35.90;;;19.50;;
2177;SDS011;1095;50.992;6.798;2023-11-22T05:00:59;37.67;;;20.23;;
2177;SDS011;1095;50.992;6.798;2023-11-22T05:03:26;35.55;;;19.13;;
2177;SDS011;1095;50.992;6.798;2023-11-22T05:05:53;34.63;;;19.67;;
2177;SDS011;1095;50.992;6.798;2023-11-22T05:08:19;36.65;;;19.83;;
2177;SDS011;1095;50.992;6.798;2023-11-22T05:10:46;36.47;;;19.42;;
2177;SDS011;1095;50.992;6.798;2023-11-22T05:13:13;40.25;;;21.05;;
2177;SDS011;1095;50.992;6.798;2023-11-22T05:15:41;35.20;;;18.75;;
2177;SDS011;1095;50.992;6.798;2023-11-22T05:18:07;35.67;;;20.35;;
2177;SDS011;1095;50.992;6.798;2023-11-22T05:20:34;35.85;;;20.27;;
2177;SDS011;1095;50.992;6.798;2023-11-22T05:23:00;37.80;;;20.73;;
2177;SDS011;1095;50.992;6.798;2023-11-22T05:25:27;38.17;;;19.08;;
2177;SDS011;1095;50.992;6.798;2023-11-22T05:27:54;36.13;;;18.77;;
2177;SDS011;1095;50.992;6.798;2023-11-22T05:30:20;40.60;;;20.10;;
2177;SDS011;1095;50.992;6.798;2023-11-22T05:32:49;37.13;;;19.23;;
2177;SDS011;1095;50.992;6.798;2023-11-22T05:35:16;32.88;;;19.25;;
2177;SDS011;1095;50.992;6.798;2023-11-22T05:37:44;34.53;;;18.75;;
2177;SDS011;1095;50.992;6.798;2023-11-22T05:40:11;33.40;;;19.52;;
2177;SDS011;1095;50.992;6.798;2023-11-22T05:42:38;34.85;;;18.88;;
2177;SDS011;1095;50.992;6.798;2023-11-22T05:45:05;31.83;;;18.83;;
2177;SDS011;1095;50.992;6.798;2023-11-22T05:47:33;36.95;;;19.10;;
2177;SDS011;1095;50.992;6.798;2023-11-22T05:50:01;38.35;;;18.65;;
2177;SDS011;1095;50.992;6.798;2023-11-22T05:52:27;38.35;;;19.23;;
2177;SDS011;1095;50.992;6.798;2023-11-22T05:54:54;35.83;;;19.85;;
2177;SDS011;1095;50.992;6.798;2023-11-22T05:57:21;37.72;;;21.02;;
2177;SDS011;1095;50.992;6.798;2023-11-22T05:59:48;39.97;;;20.45;;
2177;SDS011;1095;50.992;6.798;2023-11-22T06:02:14;35.58;;;20.15;;
2177;SDS011;1095;50.992;6.798;2023-11-22T06:04:41;32.08;;;19.80;;
2177;SDS011;1095;50.992;6.798;2023-11-22T06:07:09;41.42;;;21.08;;
2177;SDS011;1095;50.992;6.798;2023-11-22T06:09:36;39.92;;;21.33;;
2177;SDS011;1095;50.992;6.798;2023-11-22T06:12:03;42.42;;;21.85;;
2177;SDS011;1095;50.992;6.798;2023-11-22T06:14:30;39.33;;;21.63;;
2177;SDS011;1095;50.992;6.798;2023-11-22T06:16:57;41.28;;;21.02;;
2177;SDS011;1095;50.992;6.798;2023-11-22T06:19:23;37.38;;;21.92;;
2177;SDS011;1095;50.992;6.798;2023-11-22T06:21:50;32.05;;;19.23;;
2177;SDS011;1095;50.992;6.798;2023-11-22T06:24:18;37.80;;;20.92;;
2177;SDS011;1095;50.992;6.798;2023-11-22T06:26:45;38.85;;;20.08;;
2177;SDS011;1095;50.992;6.798;2023-11-22T06:29:12;36.33;;;20.40;;
2177;SDS011;1095;50.992;6.798;2023-11-22T06:31:39;40.70;;;20.90;;
2177;SDS011;1095;50.992;6.798;2023-11-22T06:34:06;36.45;;;20.67;;
2177;SDS011;1095;50.992;6.798;2023-11-22T06:36:34;38.05;;;19.73;;
2177;SDS011;1095;50.992;6.798;2023-11-22T06:39:00;42.50;;;22.42;;
2177;SDS011;1095;50.992;6.798;2023-11-22T06:41:28;37.10;;;21.20;;
2177;SDS011;1095;50.992;6.798;2023-11-22T06:43:55;35.50;;;19.77;;
2177;SDS011;1095;50.992;6.798;2023-11-22T06:46:22;40.92;;;20.67;;
2177;SDS011;1095;50.992;6.798;2023-11-22T06:48:49;38.05;;;21.40;;
2177;SDS011;1095;50.992;6.798;2023-11-22T06:51:16;37.17;;;20.75;;
2177;SDS011;1095;50.992;6.798;2023-11-22T06:53:43;43.88;;;22.23;;
2177;SDS011;1095;50.992;6.798;2023-11-22T06:56:10;38.75;;;20.40;;
2177;SDS011;1095;50.992;6.798;2023-11-22T06:58:38;41.85;;;21.67;;
2177;SDS011;1095;50.992;6.798;2023-11-22T07:01:04;36.15;;;21.08;;
2177;SDS011;1095;50.992;6.798;2023-11-22T07:03:32;34.78;;;19.15;;
2177;SDS011;1095;50.992;6.798;2023-11-22T07:05:58;42.72;;;21.23;;
2177;SDS011;1095;50.992;6.798;2023-11-22T07:08:25;40.03;;;20.08;;
2177;SDS011;1095;50.992;6.798;2023-11-22T07:10:53;42.25;;;21.00;;
2177;SDS011;1095;50.992;6.798;2023-11-22T07:13:21;35.80;;;19.80;;
2177;SDS011;1095;50.992;6.798;2023-11-22T07:15:51;41.80;;;22.02;;
2177;SDS011;1095;50.992;6.798;2023-11-22T07:18:19;41.70;;;20.80;;
2177;SDS011;1095;50.992;6.798;2023-11-22T07:20:49;36.70;;;20.05;;
2177;SDS011;1095;50.992;6.798;2023-11-22T07:23:16;40.53;;;21.25;;
2177;SDS011;1095;50.992;6.798;2023-11-22T07:25:45;38.28;;;20.92;;
2177;SDS011;1095;50.992;6.798;2023-11-22T07:28:11;36.40;;;19.40;;
2177;SDS011;1095;50.992;6.798;2023-11-22T07:30:38;41.15;;;20.80;;
2177;SDS011;1095;50.992;6.798;2023-11-22T07:33:08;39.42;;;21.27;;
2177;SDS011;1095;50.992;6.798;2023-11-22T07:35:35;36.10;;;21.17;;
2177;SDS011;1095;50.992;6.798;2023-11-22T07:38:01;39.33;;;21.23;;
2177;SDS011;1095;50.992;6.798;2023-11-22T07:40:29;37.38;;;21.55;;
2177;SDS011;1095;50.992;6.798;2023-11-22T07:42:56;39.78;;;20.08;;
2177;SDS011;1095;50.992;6.798;2023-11-22T07:45:23;36.72;;;20.23;;
2177;SDS011;1095;50.992;6.798;2023-11-22T07:47:49;38.05;;;21.63;;
2177;SDS011;1095;50.992;6.798;2023-11-22T07:50:19;33.15;;;18.60;;
2177;SDS011;1095;50.992;6.798;2023-11-22T07:52:47;34.80;;;19.25;;
2177;SDS011;1095;50.992;6.798;2023-11-22T07:55:13;27.08;;;17.25;;
2177;SDS011;1095;50.992;6.798;2023-11-22T07:57:43;26.77;;;17.10;;
2177;SDS011;1095;50.992;6.798;2023-11-22T08:00:10;29.38;;;18.95;;
2177;SDS011;1095;50.992;6.798;2023-11-22T08:02:38;31.58;;;20.48;;
2177;SDS011;1095;50.992;6.798;2023-11-22T08:05:05;30.05;;;18.30;;
2177;SDS011;1095;50.992;6.798;2023-11-22T08:07:34;25.13;;;18.25;;
2177;SDS011;1095;50.992;6.798;2023-11-22T08:10:03;28.67;;;20.25;;
2177;SDS011;1095;50.992;6.798;2023-11-22T08:12:34;24.88;;;17.75;;
2177;SDS011;1095;50.992;6.798;2023-11-22T08:15:01;26.52;;;17.55;;
2177;SDS011;1095;50.992;6.798;2023-11-22T08:17:28;25.60;;;17.63;;
2177;SDS011;1095;50.992;6.798;2023-11-22T08:19:57;31.00;;;17.33;;
2177;SDS011;1095;50.992;6.798;2023-11-22T08:22:24;25.33;;;16.25;;
2177;SDS011;1095;50.992;6.798;2023-11-22T08:24:53;26.88;;;17.63;;
2177;SDS011;1095;50.992;6.798;2023-11-22T08:27:22;26.23;;;17.58;;
2177;SDS011;1095;50.992;6.798;2023-11-22T08:29:49;27.13;;;18.58;;
2177;SDS011;1095;50.992;6.798;2023-11-22T08:32:15;29.40;;;18.45;;
2177;SDS011;1095;50.992;6.798;2023-11-22T08:34:45;26.33;;;16.77;;
2177;SDS011;1095;50.992;6.798;2023-11-22T08:37:12;28.83;;;18.40;;
2177;SDS011;1095;50.992;6.798;2023-11-22T08:39:39;29.55;;;18.58;;
2177;SDS011;1095;50.992;6.798;2023-11-22T08:42:07;27.33;;;16.83;;
2177;SDS011;1095;50.992;6.798;2023-11-22T08:44:34;33.88;;;17.98;;
2177;SDS011;1095;50.992;6.798;2023-11-22T08:47:01;31.65;;;18.05;;
2177;SDS011;1095;50.992;6.798;2023-11-22T08:49:28;29.67;;;18.95;;
2177;SDS011;1095;50.992;6.798;2023-11-22T08:51:55;28.50;;;17.98;;
2177;SDS011;1095;50.992;6.798;2023-11-22T08:54:24;28.15;;;17.60;;
2177;SDS011;1095;50.992;6.798;2023-11-22T08:56:53;28.20;;;17.42;;
2177;SDS011;1095;50.992;6.798;2023-11-22T08:59:22;27.98;;;17.30;;
2177;SDS011;1095;50.992;6.798;2023-11-22T09:01:49;26.15;;;17.10;;
2177;SDS011;1095;50.992;6.798;2023-11-22T09:04:16;29.63;;;17.20;;
2177;SDS011;1095;50.992;6.798;2023-11-22T09:06:43;28.10;;;15.93;;
2177;SDS011;1095;50.992;6.798;2023-11-22T09:09:12;26.60;;;15.55;;
2177;SDS011;1095;50.992;6.798;2023-11-22T09:11:41;24.38;;;15.40;;
2177;SDS011;1095;50.992;6.798;2023-11-22T09:14:07;23.70;;;14.93;;
2177;SDS011;1095;50.992;6.798;2023-11-22T09:16:37;25.67;;;15.50;;
2177;SDS011;1095;50.992;6.798;2023-11-22T09:19:04;29.48;;;15.65;;
2177;SDS011;1095;50.992;6.798;2023-11-22T09:21:32;24.75;;;15.05;;
2177;SDS011;1095;50.992;6.798;2023-11-22T09:24:00;23.55;;;13.77;;
2177;SDS011;1095;50.992;6.798;2023-11-22T09:26:27;20.73;;;13.68;;
2177;SDS011;1095;50.992;6.798;2023-11-22T09:28:54;20.55;;;13.57;;
2177;SDS011;1095;50.992;6.798;2023-11-22T09:31:21;22.67;;;13.85;;
2177;SDS011;1095;50.992;6.798;2023-11-22T09:33:50;21.70;;;14.02;;
2177;SDS011;1095;50.992;6.798;2023-11-22T09:36:16;20.33;;;12.85;;
2177;SDS011;1095;50.992;6.798;2023-11-22T09:38:43;19.13;;;13.48;;
2177;SDS011;1095;50.992;6.798;2023-11-22T09:41:09;19.42;;;12.20;;
2177;SDS011;1095;50.992;6.798;2023-11-22T09:43:36;18.33;;;12.32;;
2177;SDS011;1095;50.992;6.798;2023-11-22T09:46:05;15.48;;;11.38;;
2177;SDS011;1095;50.992;6.798;2023-11-22T09:48:36;16.20;;;11.05;;
2177;SDS011;1095;50.992;6.798;2023-11-22T09:51:11;19.90;;;11.23;;
2177;SDS011;1095;50.992;6.798;2023-11-22T09:53:47;19.75;;;10.00;;
2177;SDS011;1095;50.992;6.798;2023-11-22T09:56:19;14.90;;;10.27;;
2177;SDS011;1095;50.992;6.798;2023-11-22T09:58:46;12.60;;;8.82;;
2177;SDS011;1095;50.992;6.798;2023-11-22T10:01:33;15.43;;;8.25;;
2177;SDS011;1095;50.992;6.798;2023-11-22T10:04:02;14.50;;;8.93;;
2177;SDS011;1095;50.992;6.798;2023-11-22T10:06:31;13.02;;;9.20;;
2177;SDS011;1095;50.992;6.798;2023-11-22T10:09:00;13.60;;;9.52;;
2177;SDS011;1095;50.992;6.798;2023-11-22T10:11:31;11.15;;;8.30;;
2177;SDS011;1095;50.992;6.798;2023-11-22T10:13:58;11.55;;;8.48;;
2177;SDS011;1095;50.992;6.798;2023-11-22T10:16:25;13.88;;;8.98;;
2177;SDS011;1095;50.992;6.798;2023-11-22T10:18:51;14.27;;;8.57;;
2177;SDS011;1095;50.992;6.798;2023-11-22T10:21:18;11.65;;;8.10;;
2177;SDS011;1095;50.992;6.798;2023-11-22T10:23:48;13.52;;;8.77;;
2177;SDS011;1095;50.992;6.798;2023-11-22T10:26:16;14.27;;;8.70;;
2177;SDS011;1095;50.992;6.798;2023-11-22T10:28:43;12.15;;;7.18;;
2177;SDS011;1095;50.992;6.798;2023-11-22T10:31:10;10.40;;;6.20;;
2177;SDS011;1095;50.992;6.798;2023-11-22T10:33:40;9.95;;;6.80;;
2177;SDS011;1095;50.992;6.798;2023-11-22T10:36:08;10.80;;;7.10;;
2177;SDS011;1095;50.992;6.798;2023-11-22T10:38:35;10.32;;;6.65;;
2177;SDS011;1095;50.992;6.798;2023-11-22T10:41:04;10.07;;;6.35;;
2177;SDS011;1095;50.992;6.798;2023-11-22T10:43:33;9.15;;;6.68;;
2177;SDS011;1095;50.992;6.798;2023-11-22T10:46:01;8.02;;;5.55;;
2177;SDS011;1095;50.992;6.798;2023-11-22T10:48:29;9.55;;;5.90;;
2177;SDS011;1095;50.992;6.798;2023-11-22T10:50:58;10.40;;;6.38;;
2177;SDS011;1095;50.992;6.798;2023-11-22T10:53:30;7.43;;;5.20;;
2177;SDS011;1095;50.992;6.798;2023-11-22T10:56:02;7.25;;;4.40;;
2177;SDS011;1095;50.992;6.798;2023-11-22T10:58:36;8.20;;;5.70;;
2177;SDS011;1095;50.992;6.798;2023-11-22T11:01:07;8.23;;;5.13;;
2177;SDS011;1095;50.992;6.798;2023-11-22T11:03:36;7.70;;;5.78;;
2177;SDS011;1095;50.992;6.798;2023-11-22T11:06:10;5.88;;;4.57;;
2177;SDS011;1095;50.992;6.798;2023-11-22T11:08:40;8.02;;;4.93;;
2177;SDS011;1095;50.992;6.798;2023-11-22T11:11:11;5.22;;;4.30;;
2177;SDS011;1095;50.992;6.798;2023-11-22T11:13:40;7.55;;;5.35;;
2177;SDS011;1095;50.992;6.798;2023-11-22T11:16:07;8.50;;;4.72;;
2177;SDS011;1095;50.992;6.798;2023-11-22T11:18:35;8.23;;;5.65;;
2177;SDS011;1095;50.992;6.798;2023-11-22T11:21:07;7.53;;;5.32;;
2177;SDS011;1095;50.992;6.798;2023-11-22T11:23:37;8.98;;;5.97;;
2177;SDS011;1095;50.992;6.798;2023-11-22T11:26:08;9.13;;;6.78;;
2177;SDS011;1095;50.992;6.798;2023-11-22T11:28:42;9.45;;;6.93;;
2177;SDS011;1095;50.992;6.798;2023-11-22T11:31:10;11.30;;;6.82;;
2177;SDS011;1095;50.992;6.798;2023-11-22T11:33:52;9.70;;;6.80;;
2177;SDS011;1095;50.992;6.798;2023-11-22T11:38:48;10.48;;;6.72;;
2177;SDS011;1095;50.992;6.798;2023-11-22T11:41:15;10.43;;;6.55;;
2177;SDS011;1095;50.992;6.798;2023-11-22T11:43:43;9.35;;;6.10;;
2177;SDS011;1095;50.992;6.798;2023-11-22T11:46:11;9.18;;;6.03;;
2177;SDS011;1095;50.992;6.798;2023-11-22T11:48:41;8.68;;;6.22;;
2177;SDS011;1095;50.992;6.798;2023-11-22T11:51:08;9.00;;;6.30;;
2177;SDS011;1095;50.992;6.798;2023-11-22T11:53:46;11.10;;;6.28;;
2177;SDS011;1095;50.992;6.798;2023-11-22T11:56:12;8.48;;;6.07;;
2177;SDS011;1095;50.992;6.798;2023-11-22T11:58:40;11.70;;;6.18;;
2177;SDS011;1095;50.992;6.798;2023-11-22T12:01:15;8.52;;;6.18;;
2177;SDS011;1095;50.992;6.798;2023-11-22T12:03:45;9.40;;;6.18;;
2177;SDS011;1095;50.992;6.798;2023-11-22T12:06:14;9.02;;;5.70;;
2177;SDS011;1095;50.992;6.798;2023-11-22T12:08:44;7.13;;;5.38;;
2177;SDS011;1095;50.992;6.798;2023-11-22T12:11:14;8.88;;;6.10;;
2177;SDS011;1095;50.992;6.798;2023-11-22T12:13:45;7.97;;;6.03;;
2177;SDS011;1095;50.992;6.798;2023-11-22T12:16:14;7.63;;;5.75;;
2177;SDS011;1095;50.992;6.798;2023-11-22T12:18:44;8.10;;;5.85;;
2177;SDS011;1095;50.992;6.798;2023-11-22T12:21:12;10.82;;;5.63;;
2177;SDS011;1095;50.992;6.798;2023-11-22T12:23:41;7.78;;;4.97;;
2177;SDS011;1095;50.992;6.798;2023-11-22T12:26:11;6.15;;;4.90;;
2177;SDS011;1095;50.992;6.798;2023-11-22T12:28:39;8.05;;;5.15;;
2177;SDS011;1095;50.992;6.798;2023-11-22T12:31:11;6.72;;;4.85;;
2177;SDS011;1095;50.992;6.798;2023-11-22T12:33:40;8.90;;;5.85;;
2177;SDS011;1095;50.992;6.798;2023-11-22T12:36:11;8.60;;;5.28;;
2177;SDS011;1095;50.992;6.798;2023-11-22T12:38:41;8.25;;;5.28;;
2177;SDS011;1095;50.992;6.798;2023-11-22T12:41:11;7.15;;;5.00;;
2177;SDS011;1095;50.992;6.798;2023-11-22T12:43:43;9.43;;;5.70;;
2177;SDS011;1095;50.992;6.798;2023-11-22T12:46:12;9.23;;;5.45;;
2177;SDS011;1095;50.992;6.798;2023-11-22T12:48:41;7.47;;;5.18;;
2177;SDS011;1095;50.992;6.798;2023-11-22T12:51:14;7.55;;;4.78;;
2177;SDS011;1095;50.992;6.798;2023-11-22T12:53:42;7.57;;;4.50;;
2177;SDS011;1095;50.992;6.798;2023-11-22T12:56:13;6.97;;;4.93;;
2177;SDS011;1095;50.992;6.798;2023-11-22T12:58:40;7.82;;;4.45;;
2177;SDS011;1095;50.992;6.798;2023-11-22T13:01:07;7.00;;;4.90;;
2177;SDS011;1095;50.992;6.798;2023-11-22T13:03:35;8.63;;;4.65;;
2177;SDS011;1095;50.992;6.798;2023-11-22T13:06:03;8.63;;;4.97;;
2177;SDS011;1095;50.992;6.798;2023-11-22T13:08:31;7.20;;;5.03;;
2177;SDS011;1095;50.992;6.798;2023-11-22T13:11:03;7.57;;;4.72;;
2177;SDS011;1095;50.992;6.798;2023-11-22T13:13:35;7.60;;;4.50;;
2177;SDS011;1095;50.992;6.798;2023-11-22T13:16:34;6.57;;;4.40;;
2177;SDS011;1095;50.992;6.798;2023-11-22T13:19:54;11.82;;;5.00;;
2177;SDS011;1095;50.992;6.798;2023-11-22T13:22:36;6.45;;;4.43;;
2177;SDS011;1095;50.992;6.798;2023-11-22T13:25:08;6.30;;;4.40;;
2177;SDS011;1095;50.992;6.798;2023-11-22T13:28:40;7.15;;;4.50;;
2177;SDS011;1095;50.992;6.798;2023-11-22T13:37:23;6.75;;;4.97;;
2177;SDS011;1095;50.992;6.798;2023-11-22T13:40:05;5.47;;;4.18;;
2177;SDS011;1095;50.992;6.798;2023-11-22T13:42:51;5.90;;;4.30;;
2177;SDS011;1095;50.992;6.798;2023-11-22T13:45:24;5.85;;;4.70;;
2177;SDS011;1095;50.992;6.798;2023-11-22T13:48:20;6.38;;;4.30;;
2177;SDS011;1095;50.992;6.798;2023-11-22T13:51:43;6.85;;;5.25;;
2177;SDS011;1095;50.992;6.798;2023-11-22T13:57:17;15.20;;;7.55;;
2177;SDS011;1095;50.992;6.798;2023-11-22T14:00:17;12.38;;;7.82;;
2177;SDS011;1095;50.992;6.798;2023-11-22T14:06:58;12.60;;;7.78;;
2177;SDS011;1095;50.992;6.798;2023-11-22T14:10:03;15.77;;;8.73;;
2177;SDS011;1095;50.992;6.798;2023-11-22T14:12:46;13.73;;;8.82;;
2177;SDS011;1095;50.992;6.798;2023-11-22T14:15:19;11.25;;;8.70;;
2177;SDS011;1095;50.992;6.798;2023-11-22T14:17:56;14.05;;;8.65;;
2177;SDS011;1095;50.992;6.798;2023-11-22T14:20:32;15.18;;;9.57;;
2177;SDS011;1095;50.992;6.798;2023-11-22T14:23:17;14.30;;;8.65;;
2177;SDS011;1095;50.992;6.798;2023-11-22T14:26:06;12.90;;;8.95;;
2177;SDS011;1095;50.992;6.798;2023-11-22T14:28:49;12.82;;;9.40;;
2177;SDS011;1095;50.992;6.798;2023-11-22T14:31:28;13.85;;;8.55;;
2177;SDS011;1095;50.992;6.798;2023-11-22T14:34:07;18.27;;;10.20;;
2177;SDS011;1095;50.992;6.798;2023-11-22T14:36:33;12.43;;;8.82;;
2177;SDS011;1095;50.992;6.798;2023-11-22T14:39:13;14.10;;;9.00;;
2177;SDS011;1095;50.992;6.798;2023-11-22T14:41:52;14.55;;;9.60;;
2177;SDS011;1095;50.992;6.798;2023-11-22T14:44:27;15.02;;;9.02;;
2177;SDS011;1095;50.992;6.798;2023-11-22T14:47:08;16.75;;;9.98;;
2177;SDS011;1095;50.992;6.798;2023-11-22T14:50:07;14.27;;;9.70;;
2177;SDS011;1095;50.992;6.798;2023-11-22T14:53:03;13.43;;;7.95;;
2177;SDS011;1095;50.992;6.798;2023-11-22T14:55:38;13.52;;;8.23;;
2177;SDS011;1095;50.992;6.798;2023-11-22T14:58:30;13.65;;;8.38;;
2177;SDS011;1095;50.992;6.798;2023-11-22T15:01:10;11.70;;;7.88;;
2177;SDS011;1095;50.992;6.798;2023-11-22T15:06:38;12.63;;;8.38;;
2177;SDS011;1095;50.992;6.798;2023-11-22T15:09:10;14.98;;;7.97;;
2177;SDS011;1095;50.992;6.798;2023-11-22T15:11:49;12.23;;;8.10;;
2177;SDS011;1095;50.992;6.798;2023-11-22T15:20:24;10.55;;;7.45;;
2177;SDS011;1095;50.992;6.798;2023-11-22T15:22:56;14.93;;;7.65;;
2177;SDS011;1095;50.992;6.798;2023-11-22T15:25:28;12.38;;;8.20;;
2177;SDS011;1095;50.992;6.798;2023-11-22T15:28:00;11.30;;;8.27;;
2177;SDS011;1095;50.992;6.798;2023-11-22T15:30:33;10.80;;;7.85;;
2177;SDS011;1095;50.992;6.798;2023-11-22T15:33:08;14.70;;;8.13;;
2177;SDS011;1095;50.992;6.798;2023-11-22T15:35:55;12.23;;;7.10;;
2177;SDS011;1095;50.992;6.798;2023-11-22T15:38:29;12.30;;;7.55;;